sensor_id;sensor_type;location;lat;lon;timestamp;pressure;altitude;pressure_sealevel;temperature;humidity
36798;BME280;22748;8.426;99.512;2023-03-03T00:38:29;101227.22;;;29.43;61.62
36798;BME280;22748;8.426;99.512;2023-03-03T00:41:15;101224.31;;;29.38;62.15
36798;BME280;22748;8.426;99.512;2023-03-03T00:43:47;101228.03;;;29.37;62.71
36798;BME280;22748;8.426;99.512;2023-03-03T00:46:19;101244.81;;;29.39;63.03
36798;BME280;22748;8.426;99.512;2023-03-03T00:48:50;101257.63;;;29.37;62.72
36798;BME280;22748;8.426;99.512;2023-03-03T00:51:29;101260.72;;;29.33;62.98
36798;BME280;22748;8.426;99.512;2023-03-03T00:54:02;101262.19;;;29.36;63.29
36798;BME280;22748;8.426;99.512;2023-03-03T00:56:33;101261.13;;;29.37;62.96
36798;BME280;22748;8.426;99.512;2023-03-03T00:59:05;101273.75;;;29.37;63.45
36798;BME280;22748;8.426;99.512;2023-03-03T01:01:36;101283.06;;;29.34;63.22
36798;BME280;22748;8.426;99.512;2023-03-03T01:04:08;101283.88;;;29.35;62.89
36798;BME280;22748;8.426;99.512;2023-03-03T01:06:37;101285.13;;;29.32;62.64
36798;BME280;22748;8.426;99.512;2023-03-03T01:09:10;101298.38;;;29.33;62.61
36798;BME280;22748;8.426;99.512;2023-03-03T01:11:41;101296.69;;;29.32;62.92
36798;BME280;22748;8.426;99.512;2023-03-03T01:14:12;101295.06;;;29.31;63.39
36798;BME280;22748;8.426;99.512;2023-03-03T01:16:43;101297.75;;;29.31;63.06
36798;BME280;22748;8.426;99.512;2023-03-03T01:19:14;101298.75;;;29.30;63.57
36798;BME280;22748;8.426;99.512;2023-03-03T01:21:44;101295.06;;;29.31;63.24
36798;BME280;22748;8.426;99.512;2023-03-03T01:24:17;101303.13;;;29.31;63.50
36798;BME280;22748;8.426;99.512;2023-03-03T01:26:48;101306.19;;;29.28;63.67
36798;BME280;22748;8.426;99.512;2023-03-03T01:29:19;101323.38;;;29.27;63.47
36798;BME280;22748;8.426;99.512;2023-03-03T01:31:48;101316.53;;;29.25;63.21
36798;BME280;22748;8.426;99.512;2023-03-03T01:34:19;101324.78;;;29.23;63.84
36798;BME280;22748;8.426;99.512;2023-03-03T01:36:50;101330.41;;;29.28;64.26
36798;BME280;22748;8.426;99.512;2023-03-03T01:39:36;101338.47;;;29.28;63.85
36798;BME280;22748;8.426;99.512;2023-03-03T01:42:06;101351.34;;;29.33;64.34
36798;BME280;22748;8.426;99.512;2023-03-03T01:44:37;101362.69;;;29.28;63.97
36798;BME280;22748;8.426;99.512;2023-03-03T01:47:07;101375.25;;;29.21;63.35
36798;BME280;22748;8.426;99.512;2023-03-03T01:49:42;101387.06;;;29.20;63.84
36798;BME280;22748;8.426;99.512;2023-03-03T01:52:20;101404.19;;;29.19;64.44
36798;BME280;22748;8.426;99.512;2023-03-03T01:54:58;101420.28;;;29.12;64.30
36798;BME280;22748;8.426;99.512;2023-03-03T01:57:34;101419.81;;;29.09;65.07
36798;BME280;22748;8.426;99.512;2023-03-03T02:00:07;101398.31;;;29.09;65.21
36798;BME280;22748;8.426;99.512;2023-03-03T02:02:39;101387.19;;;29.12;64.96
36798;BME280;22748;8.426;99.512;2023-03-03T02:05:11;101378.13;;;29.20;65.05
36798;BME280;22748;8.426;99.512;2023-03-03T02:07:42;101384.97;;;29.22;64.11
36798;BME280;22748;8.426;99.512;2023-03-03T02:10:17;101382.75;;;29.26;64.61
36798;BME280;22748;8.426;99.512;2023-03-03T02:12:50;101383.97;;;29.23;64.61
36798;BME280;22748;8.426;99.512;2023-03-03T02:15:24;101387.88;;;29.21;65.03
36798;BME280;22748;8.426;99.512;2023-03-03T02:17:56;101392.22;;;29.22;64.98
36798;BME280;22748;8.426;99.512;2023-03-03T02:20:35;101396.31;;;29.18;65.16
36798;BME280;22748;8.426;99.512;2023-03-03T02:23:15;101402.50;;;29.11;64.96
36798;BME280;22748;8.426;99.512;2023-03-03T02:26:01;101402.50;;;29.11;64.91
36798;BME280;22748;8.426;99.512;2023-03-03T02:28:35;101404.53;;;29.09;65.19
36798;BME280;22748;8.426;99.512;2023-03-03T02:31:06;101409.53;;;29.12;65.03
36798;BME280;22748;8.426;99.512;2023-03-03T02:33:40;101413.56;;;29.08;65.31
36798;BME280;22748;8.426;99.512;2023-03-03T02:36:11;101413.56;;;29.08;64.58
36798;BME280;22748;8.426;99.512;2023-03-03T02:38:42;101426.88;;;29.10;64.85
36798;BME280;22748;8.426;99.512;2023-03-03T02:41:25;101424.34;;;29.08;65.15
36798;BME280;22748;8.426;99.512;2023-03-03T02:44:00;101427.59;;;29.04;65.32
36798;BME280;22748;8.426;99.512;2023-03-03T02:46:33;101430.94;;;29.06;65.71
36798;BME280;22748;8.426;99.512;2023-03-03T02:49:06;101439.00;;;29.06;65.95
36798;BME280;22748;8.426;99.512;2023-03-03T02:51:38;101434.28;;;29.08;65.78
36798;BME280;22748;8.426;99.512;2023-03-03T02:54:10;101429.72;;;29.08;66.28
36798;BME280;22748;8.426;99.512;2023-03-03T02:56:44;101433.44;;;29.07;66.09
36798;BME280;22748;8.426;99.512;2023-03-03T02:59:15;101430.75;;;29.07;65.98
36798;BME280;22748;8.426;99.512;2023-03-03T03:01:45;101426.38;;;29.06;65.65
36798;BME280;22748;8.426;99.512;2023-03-03T03:04:23;101424.84;;;29.12;66.47
36798;BME280;22748;8.426;99.512;2023-03-03T03:06:54;101424.25;;;29.17;66.41
36798;BME280;22748;8.426;99.512;2023-03-03T03:09:25;101423.66;;;29.21;66.05
36798;BME280;22748;8.426;99.512;2023-03-03T03:11:58;101429.06;;;29.21;66.08
36798;BME280;22748;8.426;99.512;2023-03-03T03:14:30;101430.22;;;29.12;66.34
36798;BME280;22748;8.426;99.512;2023-03-03T03:16:59;101445.84;;;29.08;66.07
36798;BME280;22748;8.426;99.512;2023-03-03T03:19:30;101446.72;;;29.09;66.94
36798;BME280;22748;8.426;99.512;2023-03-03T03:22:02;101453.91;;;29.08;67.22
36798;BME280;22748;8.426;99.512;2023-03-03T03:24:32;101464.84;;;29.07;67.19
36798;BME280;22748;8.426;99.512;2023-03-03T03:27:05;101483.69;;;29.07;67.57
36798;BME280;22748;8.426;99.512;2023-03-03T03:29:35;101497.91;;;29.01;67.28
36798;BME280;22748;8.426;99.512;2023-03-03T03:32:06;101518.16;;;28.82;68.01
36798;BME280;22748;8.426;99.512;2023-03-03T03:34:39;101522.63;;;28.60;68.72
36798;BME280;22748;8.426;99.512;2023-03-03T03:37:10;101507.03;;;28.70;68.36
36798;BME280;22748;8.426;99.512;2023-03-03T03:39:43;101485.25;;;28.80;67.91
36798;BME280;22748;8.426;99.512;2023-03-03T03:42:15;101457.53;;;28.79;68.24
36798;BME280;22748;8.426;99.512;2023-03-03T03:44:47;101476.22;;;28.87;67.18
36798;BME280;22748;8.426;99.512;2023-03-03T03:47:18;101474.38;;;28.88;67.16
36798;BME280;22748;8.426;99.512;2023-03-03T03:49:50;101449.81;;;28.91;67.06
36798;BME280;22748;8.426;99.512;2023-03-03T03:52:21;101421.69;;;28.93;66.75
36798;BME280;22748;8.426;99.512;2023-03-03T03:54:53;101422.72;;;28.92;66.46
36798;BME280;22748;8.426;99.512;2023-03-03T03:57:30;101424.13;;;28.88;66.18
36798;BME280;22748;8.426;99.512;2023-03-03T04:00:02;101409.28;;;28.92;65.67
36798;BME280;22748;8.426;99.512;2023-03-03T04:02:32;101398.34;;;28.94;65.70
36798;BME280;22748;8.426;99.512;2023-03-03T04:05:02;101378.88;;;28.92;64.85
36798;BME280;22748;8.426;99.512;2023-03-03T04:07:36;101391.47;;;28.91;65.16
36798;BME280;22748;8.426;99.512;2023-03-03T04:10:06;101398.53;;;28.92;64.80
36798;BME280;22748;8.426;99.512;2023-03-03T04:12:38;101403.91;;;28.92;64.64
36798;BME280;22748;8.426;99.512;2023-03-03T04:15:10;101402.22;;;28.91;64.79
36798;BME280;22748;8.426;99.512;2023-03-03T04:17:42;101400.19;;;28.93;64.71
36798;BME280;22748;8.426;99.512;2023-03-03T04:20:14;101389.44;;;28.93;64.50
36798;BME280;22748;8.426;99.512;2023-03-03T04:22:45;101380.34;;;28.95;64.41
36798;BME280;22748;8.426;99.512;2023-03-03T04:25:17;101367.09;;;28.93;64.25
36798;BME280;22748;8.426;99.512;2023-03-03T04:27:50;101354.63;;;28.85;64.47
36798;BME280;22748;8.426;99.512;2023-03-03T04:30:21;101341.09;;;28.79;64.91
36798;BME280;22748;8.426;99.512;2023-03-03T04:32:52;101344.00;;;28.77;64.52
36798;BME280;22748;8.426;99.512;2023-03-03T04:35:23;101345.75;;;28.70;65.38
36798;BME280;22748;8.426;99.512;2023-03-03T04:37:54;101340.47;;;28.77;65.48
36798;BME280;22748;8.426;99.512;2023-03-03T04:40:25;101342.94;;;28.78;65.28
36798;BME280;22748;8.426;99.512;2023-03-03T04:42:57;101344.88;;;28.84;65.73
36798;BME280;22748;8.426;99.512;2023-03-03T04:45:29;101346.16;;;28.88;65.90
36798;BME280;22748;8.426;99.512;2023-03-03T04:47:59;101340.16;;;28.86;65.53
36798;BME280;22748;8.426;99.512;2023-03-03T04:50:31;101330.84;;;28.67;66.41
36798;BME280;22748;8.426;99.512;2023-03-03T04:53:02;101307.69;;;28.66;66.39
36798;BME280;22748;8.426;99.512;2023-03-03T04:55:35;101312.50;;;28.71;66.45
36798;BME280;22748;8.426;99.512;2023-03-03T04:58:08;101314.53;;;28.69;66.51
36798;BME280;22748;8.426;99.512;2023-03-03T05:00:39;101310.97;;;28.62;67.24
36798;BME280;22748;8.426;99.512;2023-03-03T05:03:11;101300.56;;;28.59;67.42
36798;BME280;22748;8.426;99.512;2023-03-03T05:05:42;101308.78;;;28.50;67.91
36798;BME280;22748;8.426;99.512;2023-03-03T05:08:12;101303.53;;;28.64;67.34
36798;BME280;22748;8.426;99.512;2023-03-03T05:10:44;101301.03;;;28.62;67.49
36798;BME280;22748;8.426;99.512;2023-03-03T05:13:17;101292.38;;;28.67;67.03
36798;BME280;22748;8.426;99.512;2023-03-03T05:15:51;101294.97;;;28.75;66.88
36798;BME280;22748;8.426;99.512;2023-03-03T05:18:22;101293.56;;;28.79;66.40
36798;BME280;22748;8.426;99.512;2023-03-03T05:20:52;101291.75;;;28.86;65.97
36798;BME280;22748;8.426;99.512;2023-03-03T05:23:23;101292.00;;;28.91;65.57
36798;BME280;22748;8.426;99.512;2023-03-03T05:25:53;101279.81;;;28.96;66.06
36798;BME280;22748;8.426;99.512;2023-03-03T05:28:25;101272.41;;;28.98;66.24
36798;BME280;22748;8.426;99.512;2023-03-03T05:30:56;101269.97;;;29.03;65.90
36798;BME280;22748;8.426;99.512;2023-03-03T05:33:29;101266.25;;;29.04;65.85
36798;BME280;22748;8.426;99.512;2023-03-03T05:35:59;101262.53;;;29.05;65.81
36798;BME280;22748;8.426;99.512;2023-03-03T05:38:29;101258.19;;;29.04;65.60
36798;BME280;22748;8.426;99.512;2023-03-03T05:41:05;101252.16;;;29.02;65.52
36798;BME280;22748;8.426;99.512;2023-03-03T05:43:37;101246.78;;;29.02;65.46
36798;BME280;22748;8.426;99.512;2023-03-03T05:46:08;101242.69;;;29.06;65.06
36798;BME280;22748;8.426;99.512;2023-03-03T05:48:39;101235.09;;;29.09;64.76
36798;BME280;22748;8.426;99.512;2023-03-03T05:51:09;101236.56;;;29.12;64.69
36798;BME280;22748;8.426;99.512;2023-03-03T05:53:39;101220.81;;;29.09;64.68
36798;BME280;22748;8.426;99.512;2023-03-03T05:56:10;101226.56;;;29.06;64.52
36798;BME280;22748;8.426;99.512;2023-03-03T05:58:45;101215.34;;;29.02;64.92
36798;BME280;22748;8.426;99.512;2023-03-03T06:01:16;101209.38;;;29.07;64.62
36798;BME280;22748;8.426;99.512;2023-03-03T06:03:47;101192.22;;;29.08;65.44
36798;BME280;22748;8.426;99.512;2023-03-03T06:06:19;101204.28;;;29.12;66.33
36798;BME280;22748;8.426;99.512;2023-03-03T06:08:49;101197.88;;;29.13;66.19
36798;BME280;22748;8.426;99.512;2023-03-03T06:11:20;101196.22;;;29.12;66.34
36798;BME280;22748;8.426;99.512;2023-03-03T06:13:53;101200.97;;;29.10;66.67
36798;BME280;22748;8.426;99.512;2023-03-03T06:16:23;101193.53;;;29.12;66.40
36798;BME280;22748;8.426;99.512;2023-03-03T06:18:53;101188.56;;;29.16;66.88
36798;BME280;22748;8.426;99.512;2023-03-03T06:21:24;101192.75;;;29.18;66.99
36798;BME280;22748;8.426;99.512;2023-03-03T06:23:54;101193.75;;;29.17;67.46
36798;BME280;22748;8.426;99.512;2023-03-03T06:26:24;101190.22;;;29.10;67.24
36798;BME280;22748;8.426;99.512;2023-03-03T06:28:59;101186.47;;;29.11;67.34
36798;BME280;22748;8.426;99.512;2023-03-03T06:31:29;101182.38;;;29.15;67.60
36798;BME280;22748;8.426;99.512;2023-03-03T06:33:59;101182.41;;;29.22;67.51
36798;BME280;22748;8.426;99.512;2023-03-03T06:36:29;101189.69;;;29.00;68.10
36798;BME280;22748;8.426;99.512;2023-03-03T06:38:59;101192.59;;;29.05;68.15
36798;BME280;22748;8.426;99.512;2023-03-03T06:41:31;101188.97;;;29.12;67.79
36798;BME280;22748;8.426;99.512;2023-03-03T06:44:03;101198.94;;;29.19;68.12
36798;BME280;22748;8.426;99.512;2023-03-03T06:46:34;101193.16;;;29.22;67.74
36798;BME280;22748;8.426;99.512;2023-03-03T06:49:07;101182.03;;;29.25;67.76
36798;BME280;22748;8.426;99.512;2023-03-03T06:51:38;101178.94;;;29.28;67.87
36798;BME280;22748;8.426;99.512;2023-03-03T06:54:19;101172.53;;;29.29;67.77
36798;BME280;22748;8.426;99.512;2023-03-03T06:56:58;101175.00;;;29.30;67.66
36798;BME280;22748;8.426;99.512;2023-03-03T06:59:35;101170.25;;;29.32;67.85
36798;BME280;22748;8.426;99.512;2023-03-03T07:02:13;101160.31;;;29.33;68.18
36798;BME280;22748;8.426;99.512;2023-03-03T07:04:45;101157.22;;;29.29;68.47
36798;BME280;22748;8.426;99.512;2023-03-03T07:07:17;101158.88;;;29.30;68.86
36798;BME280;22748;8.426;99.512;2023-03-03T07:09:51;101160.53;;;29.31;68.71
36798;BME280;22748;8.426;99.512;2023-03-03T07:12:23;101165.91;;;29.31;68.63
36798;BME280;22748;8.426;99.512;2023-03-03T07:15:10;101148.69;;;29.26;68.46
36798;BME280;22748;8.426;99.512;2023-03-03T07:17:43;101142.31;;;29.27;69.07
36798;BME280;22748;8.426;99.512;2023-03-03T07:20:19;101135.69;;;29.29;68.94
36798;BME280;22748;8.426;99.512;2023-03-03T07:22:52;101141.03;;;29.23;69.25
36798;BME280;22748;8.426;99.512;2023-03-03T07:25:28;101142.66;;;29.17;69.33
36798;BME280;22748;8.426;99.512;2023-03-03T07:28:15;101147.19;;;29.10;70.07
36798;BME280;22748;8.426;99.512;2023-03-03T07:30:57;101147.00;;;29.11;70.49
36798;BME280;22748;8.426;99.512;2023-03-03T07:33:28;101142.44;;;29.12;70.65
36798;BME280;22748;8.426;99.512;2023-03-03T07:36:02;101145.69;;;29.07;70.25
36798;BME280;22748;8.426;99.512;2023-03-03T07:38:36;101141.28;;;29.00;70.33
36798;BME280;22748;8.426;99.512;2023-03-03T07:41:12;101145.66;;;29.01;70.17
36798;BME280;22748;8.426;99.512;2023-03-03T07:43:49;101152.84;;;29.00;70.28
36798;BME280;22748;8.426;99.512;2023-03-03T07:46:40;101157.59;;;28.98;69.69
36798;BME280;22748;8.426;99.512;2023-03-03T07:49:22;101159.06;;;28.94;69.84
36798;BME280;22748;8.426;99.512;2023-03-03T07:51:55;101161.94;;;28.92;69.41
36798;BME280;22748;8.426;99.512;2023-03-03T07:54:45;101160.66;;;28.88;69.59
36798;BME280;22748;8.426;99.512;2023-03-03T07:57:24;101152.00;;;28.93;69.10
36798;BME280;22748;8.426;99.512;2023-03-03T07:59:59;101156.97;;;28.96;68.89
36798;BME280;22748;8.426;99.512;2023-03-03T08:02:49;101155.78;;;28.99;68.73
36798;BME280;22748;8.426;99.512;2023-03-03T08:05:35;101137.59;;;29.01;68.43
36798;BME280;22748;8.426;99.512;2023-03-03T08:08:26;101128.47;;;29.02;68.48
36798;BME280;22748;8.426;99.512;2023-03-03T08:10:58;101114.00;;;29.03;68.01
36798;BME280;22748;8.426;99.512;2023-03-03T08:13:34;101096.22;;;29.02;67.74
36798;BME280;22748;8.426;99.512;2023-03-03T08:16:28;101082.13;;;29.00;67.42
36798;BME280;22748;8.426;99.512;2023-03-03T08:19:02;101089.19;;;29.01;67.51
36798;BME280;22748;8.426;99.512;2023-03-03T08:21:35;101084.19;;;28.98;67.13
36798;BME280;22748;8.426;99.512;2023-03-03T08:24:08;101095.97;;;28.97;67.02
36798;BME280;22748;8.426;99.512;2023-03-03T08:26:40;101087.91;;;28.97;67.15
36798;BME280;22748;8.426;99.512;2023-03-03T08:29:11;101096.16;;;28.95;67.06
36798;BME280;22748;8.426;99.512;2023-03-03T08:31:45;101075.47;;;28.96;67.62
36798;BME280;22748;8.426;99.512;2023-03-03T08:34:24;101084.59;;;28.95;67.79
36798;BME280;22748;8.426;99.512;2023-03-03T08:36:59;101087.91;;;28.97;67.53
36798;BME280;22748;8.426;99.512;2023-03-03T08:39:29;101093.25;;;28.90;67.60
36798;BME280;22748;8.426;99.512;2023-03-03T08:42:00;101081.19;;;28.79;67.82
36798;BME280;22748;8.426;99.512;2023-03-03T08:44:31;101091.94;;;28.79;67.83
36798;BME280;22748;8.426;99.512;2023-03-03T08:47:02;101090.19;;;28.65;67.60
36798;BME280;22748;8.426;99.512;2023-03-03T08:49:51;101088.13;;;28.67;67.64
36798;BME280;22748;8.426;99.512;2023-03-03T08:52:26;101083.22;;;28.70;67.52
36798;BME280;22748;8.426;99.512;2023-03-03T08:54:56;101075.56;;;28.74;67.51
36798;BME280;22748;8.426;99.512;2023-03-03T08:57:27;101074.16;;;28.78;67.64
36798;BME280;22748;8.426;99.512;2023-03-03T08:59:59;101065.69;;;28.81;67.17
36798;BME280;22748;8.426;99.512;2023-03-03T09:02:28;101073.13;;;28.79;67.17
36798;BME280;22748;8.426;99.512;2023-03-03T09:05:01;101074.16;;;28.78;67.66
36798;BME280;22748;8.426;99.512;2023-03-03T09:07:32;101073.72;;;28.75;67.98
36798;BME280;22748;8.426;99.512;2023-03-03T09:10:02;101080.31;;;28.72;67.91
36798;BME280;22748;8.426;99.512;2023-03-03T09:12:34;101081.53;;;28.69;67.70
36798;BME280;22748;8.426;99.512;2023-03-03T09:15:18;101087.13;;;28.68;68.06
36798;BME280;22748;8.426;99.512;2023-03-03T09:17:50;101081.13;;;28.66;67.65
36798;BME280;22748;8.426;99.512;2023-03-03T09:20:38;101085.84;;;28.64;67.59
36798;BME280;22748;8.426;99.512;2023-03-03T09:23:39;101078.56;;;28.58;67.45
36798;BME280;22748;8.426;99.512;2023-03-03T09:26:16;101090.97;;;28.59;67.42
36798;BME280;22748;8.426;99.512;2023-03-03T09:28:55;101093.88;;;28.57;67.67
36798;BME280;22748;8.426;99.512;2023-03-03T09:31:33;101101.66;;;28.52;67.66
36798;BME280;22748;8.426;99.512;2023-03-03T09:34:18;101124.97;;;28.23;68.17
36798;BME280;22748;8.426;99.512;2023-03-03T09:36:55;101084.09;;;28.28;68.66
36798;BME280;22748;8.426;99.512;2023-03-03T09:39:29;101080.25;;;28.37;68.66
36798;BME280;22748;8.426;99.512;2023-03-03T09:45:25;101101.53;;;28.39;68.14
36798;BME280;22748;8.426;99.512;2023-03-03T09:51:23;101094.56;;;28.44;68.19
36798;BME280;22748;8.426;99.512;2023-03-03T09:54:15;101087.97;;;28.47;68.14
36798;BME280;22748;8.426;99.512;2023-03-03T09:56:55;101097.25;;;28.44;67.90
36798;BME280;22748;8.426;99.512;2023-03-03T09:59:40;101096.63;;;28.42;67.72
36798;BME280;22748;8.426;99.512;2023-03-03T10:02:36;101109.00;;;28.43;68.15
36798;BME280;22748;8.426;99.512;2023-03-03T10:05:30;101114.38;;;28.43;68.44
36798;BME280;22748;8.426;99.512;2023-03-03T10:08:26;101114.00;;;28.46;68.81
36798;BME280;22748;8.426;99.512;2023-03-03T10:11:12;101118.00;;;28.50;68.53
36798;BME280;22748;8.426;99.512;2023-03-03T10:13:59;101124.00;;;28.52;68.27
36798;BME280;22748;8.426;99.512;2023-03-03T10:16:59;101118.25;;;28.56;68.29
36798;BME280;22748;8.426;99.512;2023-03-03T10:19:39;101123.22;;;28.59;68.20
36798;BME280;22748;8.426;99.512;2023-03-03T10:22:18;101117.19;;;28.57;68.11
36798;BME280;22748;8.426;99.512;2023-03-03T10:25:02;101111.19;;;28.55;68.48
36798;BME280;22748;8.426;99.512;2023-03-03T10:30:43;101109.16;;;28.57;68.23
36798;BME280;22748;8.426;99.512;2023-03-03T10:33:24;101115.78;;;28.61;68.50
36798;BME280;22748;8.426;99.512;2023-03-03T10:36:26;101120.34;;;28.60;67.98
36798;BME280;22748;8.426;99.512;2023-03-03T10:39:09;101132.56;;;28.63;68.10
36798;BME280;22748;8.426;99.512;2023-03-03T10:45:12;101127.19;;;28.63;68.32
36798;BME280;22748;8.426;99.512;2023-03-03T10:48:02;101114.56;;;28.63;68.63
36798;BME280;22748;8.426;99.512;2023-03-03T10:50:47;101121.44;;;28.66;68.43
36798;BME280;22748;8.426;99.512;2023-03-03T10:53:31;101118.75;;;28.66;68.49
36798;BME280;22748;8.426;99.512;2023-03-03T10:56:19;101115.41;;;28.64;68.56
36798;BME280;22748;8.426;99.512;2023-03-03T10:59:01;101126.16;;;28.64;68.20
36798;BME280;22748;8.426;99.512;2023-03-03T11:01:46;101134.59;;;28.61;68.22
36798;BME280;22748;8.426;99.512;2023-03-03T11:04:29;101132.97;;;28.60;68.55
36798;BME280;22748;8.426;99.512;2023-03-03T11:07:10;101123.22;;;28.59;68.36
36798;BME280;22748;8.426;99.512;2023-03-03T11:12:45;101122.00;;;28.61;68.47
36798;BME280;22748;8.426;99.512;2023-03-03T11:15:38;101128.59;;;28.59;68.93
36798;BME280;22748;8.426;99.512;2023-03-03T11:18:23;101139.34;;;28.59;68.42
36798;BME280;22748;8.426;99.512;2023-03-03T11:21:06;101147.16;;;28.54;68.88
36798;BME280;22748;8.426;99.512;2023-03-03T11:24:25;101157.47;;;28.50;69.16
36798;BME280;22748;8.426;99.512;2023-03-03T11:27:15;101159.13;;;28.51;68.72
36798;BME280;22748;8.426;99.512;2023-03-03T11:30:00;101166.16;;;28.52;69.14
36798;BME280;22748;8.426;99.512;2023-03-03T11:32:40;101181.44;;;28.51;68.88
36798;BME280;22748;8.426;99.512;2023-03-03T11:35:28;101172.75;;;28.49;69.18
36798;BME280;22748;8.426;99.512;2023-03-03T11:38:10;101180.81;;;28.49;68.81
36798;BME280;22748;8.426;99.512;2023-03-03T11:40:49;101182.84;;;28.47;68.89
36798;BME280;22748;8.426;99.512;2023-03-03T11:43:25;101167.75;;;28.46;68.95
36798;BME280;22748;8.426;99.512;2023-03-03T11:45:59;101176.47;;;28.48;68.90
36798;BME280;22748;8.426;99.512;2023-03-03T11:48:38;101179.81;;;28.50;69.20
36798;BME280;22748;8.426;99.512;2023-03-03T11:51:18;101183.09;;;28.52;68.93
36798;BME280;22748;8.426;99.512;2023-03-03T11:54:00;101175.25;;;28.51;69.21
36798;BME280;22748;8.426;99.512;2023-03-03T11:56:38;101168.03;;;28.51;69.02
36798;BME280;22748;8.426;99.512;2023-03-03T12:02:24;101175.63;;;28.48;68.82
36798;BME280;22748;8.426;99.512;2023-03-03T12:05:04;101183.88;;;28.46;69.14
36798;BME280;22748;8.426;99.512;2023-03-03T12:07:45;101187.56;;;28.45;68.98
36798;BME280;22748;8.426;99.512;2023-03-03T12:10:23;101188.59;;;28.44;68.96
36798;BME280;22748;8.426;99.512;2023-03-03T12:13:02;101192.94;;;28.45;68.77
36798;BME280;22748;8.426;99.512;2023-03-03T12:15:39;101189.91;;;28.48;68.84
36798;BME280;22748;8.426;99.512;2023-03-03T12:18:32;101196.75;;;28.51;68.78
36798;BME280;22748;8.426;99.512;2023-03-03T12:21:20;101195.53;;;28.54;68.89
36798;BME280;22748;8.426;99.512;2023-03-03T12:24:12;101198.03;;;28.55;68.60
36798;BME280;22748;8.426;99.512;2023-03-03T12:26:56;101200.13;;;28.60;68.60
36798;BME280;22748;8.426;99.512;2023-03-03T12:29:37;101195.59;;;28.60;68.79
36798;BME280;22748;8.426;99.512;2023-03-03T12:32:20;101191.84;;;28.61;68.84
36798;BME280;22748;8.426;99.512;2023-03-03T12:35:00;101199.09;;;28.61;68.36
36798;BME280;22748;8.426;99.512;2023-03-03T12:37:46;101213.56;;;28.60;68.46
36798;BME280;22748;8.426;99.512;2023-03-03T12:40:25;101214.22;;;28.62;68.75
36798;BME280;22748;8.426;99.512;2023-03-03T12:43:13;101207.16;;;28.61;68.42
36798;BME280;22748;8.426;99.512;2023-03-03T12:45:54;101210.66;;;28.61;68.18
36798;BME280;22748;8.426;99.512;2023-03-03T12:48:35;101199.31;;;28.59;68.55
36798;BME280;22748;8.426;99.512;2023-03-03T12:51:17;101212.94;;;28.58;68.29
36798;BME280;22748;8.426;99.512;2023-03-03T12:54:29;101218.31;;;28.58;68.44
36798;BME280;22748;8.426;99.512;2023-03-03T12:57:13;101220.34;;;28.56;68.08
36798;BME280;22748;8.426;99.512;2023-03-03T12:59:57;101230.06;;;28.57;68.53
36798;BME280;22748;8.426;99.512;2023-03-03T13:02:58;101228.41;;;28.56;68.49
36798;BME280;22748;8.426;99.512;2023-03-03T13:05:34;101232.75;;;28.57;68.51
36798;BME280;22748;8.426;99.512;2023-03-03T13:08:38;101247.22;;;28.56;68.24
36798;BME280;22748;8.426;99.512;2023-03-03T13:11:32;101245.53;;;28.55;68.41
36798;BME280;22748;8.426;99.512;2023-03-03T13:14:14;101250.91;;;28.55;68.41
36798;BME280;22748;8.426;99.512;2023-03-03T13:16:53;101253.81;;;28.53;68.50
36798;BME280;22748;8.426;99.512;2023-03-03T13:19:32;101248.63;;;28.51;68.37
36798;BME280;22748;8.426;99.512;2023-03-03T13:22:11;101258.72;;;28.49;68.01
36798;BME280;22748;8.426;99.512;2023-03-03T13:24:54;101258.72;;;28.49;68.44
36798;BME280;22748;8.426;99.512;2023-03-03T13:27:32;101260.41;;;28.50;68.23
36798;BME280;22748;8.426;99.512;2023-03-03T13:30:15;101261.25;;;28.51;68.00
36798;BME280;22748;8.426;99.512;2023-03-03T13:33:04;101266.59;;;28.51;68.50
36798;BME280;22748;8.426;99.512;2023-03-03T13:35:44;101274.47;;;28.52;68.44
36798;BME280;22748;8.426;99.512;2023-03-03T13:38:21;101276.13;;;28.54;68.42
36798;BME280;22748;8.426;99.512;2023-03-03T13:41:06;101277.16;;;28.52;68.50
36798;BME280;22748;8.426;99.512;2023-03-03T13:43:45;101287.91;;;28.52;68.47
36798;BME280;22748;8.426;99.512;2023-03-03T13:46:35;101295.13;;;28.52;68.08
36798;BME280;22748;8.426;99.512;2023-03-03T13:49:24;101287.28;;;28.50;68.41
36798;BME280;22748;8.426;99.512;2023-03-03T13:52:06;101286.63;;;28.48;68.20
36798;BME280;22748;8.426;99.512;2023-03-03T13:54:48;101297.38;;;28.48;68.41
36798;BME280;22748;8.426;99.512;2023-03-03T13:57:38;101296.72;;;28.46;68.43
36798;BME280;22748;8.426;99.512;2023-03-03T14:00:19;101290.47;;;28.46;68.26
36798;BME280;22748;8.426;99.512;2023-03-03T14:03:19;101299.56;;;28.45;68.06
36798;BME280;22748;8.426;99.512;2023-03-03T14:05:58;101307.47;;;28.46;68.32
36798;BME280;22748;8.426;99.512;2023-03-03T14:08:52;101309.97;;;28.48;68.28
36798;BME280;22748;8.426;99.512;2023-03-03T14:11:27;101306.09;;;28.50;68.22
36798;BME280;22748;8.426;99.512;2023-03-03T14:14:02;101314.75;;;28.52;68.02
36798;BME280;22748;8.426;99.512;2023-03-03T14:16:46;101305.88;;;28.52;68.05
36798;BME280;22748;8.426;99.512;2023-03-03T14:19:24;101294.94;;;28.54;68.11
36798;BME280;22748;8.426;99.512;2023-03-03T14:22:05;101309.22;;;28.54;68.10
36798;BME280;22748;8.426;99.512;2023-03-03T14:25:00;101303.84;;;28.54;68.12
36798;BME280;22748;8.426;99.512;2023-03-03T14:27:39;101298.28;;;28.56;67.62
36798;BME280;22748;8.426;99.512;2023-03-03T14:30:38;101306.34;;;28.56;67.54
36798;BME280;22748;8.426;99.512;2023-03-03T14:33:29;101291.44;;;28.53;67.62
36798;BME280;22748;8.426;99.512;2023-03-03T14:36:14;101307.34;;;28.55;67.62
36798;BME280;22748;8.426;99.512;2023-03-03T14:38:55;101308.19;;;28.55;67.66